sensor_id;sensor_type;location;lat;lon;timestamp;P1;durP1;ratioP1;P2;durP2;ratioP2
51438;SDS011;38816;51.142;-0.974;2024-03-22T00:00:32;114.60;;;104.75;;
51438;SDS011;38816;51.142;-0.974;2024-03-22T00:02:57;114.72;;;104.13;;
51438;SDS011;38816;51.142;-0.974;2024-03-22T00:05:23;116.13;;;106.20;;
51438;SDS011;38816;51.142;-0.974;2024-03-22T00:07:48;113.70;;;103.38;;
51438;SDS011;38816;51.142;-0.974;2024-03-22T00:10:14;117.93;;;107.13;;
51438;SDS011;38816;51.142;-0.974;2024-03-22T00:12:39;115.45;;;105.25;;
51438;SDS011;38816;51.142;-0.974;2024-03-22T00:15:05;125.15;;;114.82;;
51438;SDS011;38816;51.142;-0.974;2024-03-22T00:17:31;116.63;;;106.45;;
51438;SDS011;38816;51.142;-0.974;2024-03-22T00:19:56;121.03;;;110.88;;
51438;SDS011;38816;51.142;-0.974;2024-03-22T00:22:22;115.55;;;105.82;;
51438;SDS011;38816;51.142;-0.974;2024-03-22T00:24:47;117.18;;;106.60;;
51438;SDS011;38816;51.142;-0.974;2024-03-22T00:27:13;121.93;;;111.68;;
51438;SDS011;38816;51.142;-0.974;2024-03-22T00:29:39;141.05;;;129.23;;
51438;SDS011;38816;51.142;-0.974;2024-03-22T00:32:04;124.38;;;113.80;;
51438;SDS011;38816;51.142;-0.974;2024-03-22T00:34:32;120.93;;;110.45;;
51438;SDS011;38816;51.142;-0.974;2024-03-22T00:36:58;122.47;;;112.32;;
51438;SDS011;38816;51.142;-0.974;2024-03-22T00:39:23;119.97;;;109.25;;
51438;SDS011;38816;51.142;-0.974;2024-03-22T00:41:49;120.63;;;109.72;;
51438;SDS011;38816;51.142;-0.974;2024-03-22T00:44:17;120.13;;;109.97;;
51438;SDS011;38816;51.142;-0.974;2024-03-22T00:46:42;123.90;;;113.32;;
51438;SDS011;38816;51.142;-0.974;2024-03-22T00:49:08;122.35;;;112.35;;
51438;SDS011;38816;51.142;-0.974;2024-03-22T00:51:33;117.80;;;107.30;;
51438;SDS011;38816;51.142;-0.974;2024-03-22T00:53:59;120.40;;;109.88;;
51438;SDS011;38816;51.142;-0.974;2024-03-22T00:56:24;120.55;;;110.05;;
51438;SDS011;38816;51.142;-0.974;2024-03-22T00:58:50;121.60;;;111.07;;
51438;SDS011;38816;51.142;-0.974;2024-03-22T01:01:15;126.57;;;115.78;;
51438;SDS011;38816;51.142;-0.974;2024-03-22T01:03:41;118.13;;;108.03;;
51438;SDS011;38816;51.142;-0.974;2024-03-22T01:06:06;125.53;;;114.53;;
51438;SDS011;38816;51.142;-0.974;2024-03-22T01:08:32;127.30;;;116.25;;
51438;SDS011;38816;51.142;-0.974;2024-03-22T01:10:57;121.97;;;111.25;;
51438;SDS011;38816;51.142;-0.974;2024-03-22T01:13:23;123.88;;;112.95;;
51438;SDS011;38816;51.142;-0.974;2024-03-22T01:15:48;123.18;;;111.88;;
51438;SDS011;38816;51.142;-0.974;2024-03-22T01:18:14;119.75;;;109.63;;
51438;SDS011;38816;51.142;-0.974;2024-03-22T01:20:39;128.45;;;117.10;;
51438;SDS011;38816;51.142;-0.974;2024-03-22T01:23:05;122.93;;;111.78;;
51438;SDS011;38816;51.142;-0.974;2024-03-22T01:25:30;128.73;;;117.28;;
51438;SDS011;38816;51.142;-0.974;2024-03-22T01:27:56;126.90;;;115.32;;
51438;SDS011;38816;51.142;-0.974;2024-03-22T01:30:22;126.75;;;115.70;;
51438;SDS011;38816;51.142;-0.974;2024-03-22T01:32:48;137.93;;;125.40;;
51438;SDS011;38816;51.142;-0.974;2024-03-22T01:35:13;123.25;;;112.45;;
51438;SDS011;38816;51.142;-0.974;2024-03-22T01:37:39;132.93;;;122.05;;
51438;SDS011;38816;51.142;-0.974;2024-03-22T01:40:04;120.63;;;109.78;;
51438;SDS011;38816;51.142;-0.974;2024-03-22T01:42:30;121.22;;;111.18;;
51438;SDS011;38816;51.142;-0.974;2024-03-22T01:44:56;118.13;;;107.93;;
51438;SDS011;38816;51.142;-0.974;2024-03-22T01:47:21;124.13;;;113.22;;
51438;SDS011;38816;51.142;-0.974;2024-03-22T01:49:47;119.63;;;109.68;;
51438;SDS011;38816;51.142;-0.974;2024-03-22T01:52:15;120.97;;;110.68;;
51438;SDS011;38816;51.142;-0.974;2024-03-22T01:54:41;127.15;;;116.70;;
51438;SDS011;38816;51.142;-0.974;2024-03-22T01:57:07;116.53;;;106.90;;
51438;SDS011;38816;51.142;-0.974;2024-03-22T01:59:33;121.82;;;111.78;;
51438;SDS011;38816;51.142;-0.974;2024-03-22T02:01:59;127.65;;;116.93;;
51438;SDS011;38816;51.142;-0.974;2024-03-22T02:04:25;122.72;;;112.85;;
51438;SDS011;38816;51.142;-0.974;2024-03-22T02:06:50;128.93;;;118.82;;
51438;SDS011;38816;51.142;-0.974;2024-03-22T02:09:15;126.78;;;116.95;;
51438;SDS011;38816;51.142;-0.974;2024-03-22T02:11:41;134.00;;;123.32;;
51438;SDS011;38816;51.142;-0.974;2024-03-22T02:14:07;136.27;;;125.63;;
51438;SDS011;38816;51.142;-0.974;2024-03-22T02:16:33;127.57;;;117.03;;
51438;SDS011;38816;51.142;-0.974;2024-03-22T02:18:58;127.95;;;117.68;;
51438;SDS011;38816;51.142;-0.974;2024-03-22T02:21:24;127.25;;;116.90;;
51438;SDS011;38816;51.142;-0.974;2024-03-22T02:23:49;122.55;;;113.47;;
51438;SDS011;38816;51.142;-0.974;2024-03-22T02:26:15;126.45;;;116.93;;
51438;SDS011;38816;51.142;-0.974;2024-03-22T02:28:40;137.20;;;127.18;;
51438;SDS011;38816;51.142;-0.974;2024-03-22T02:31:06;161.90;;;149.82;;
51438;SDS011;38816;51.142;-0.974;2024-03-22T02:33:31;134.07;;;124.18;;
51438;SDS011;38816;51.142;-0.974;2024-03-22T02:35:57;183.35;;;170.63;;
51438;SDS011;38816;51.142;-0.974;2024-03-22T02:38:22;194.50;;;181.02;;
51438;SDS011;38816;51.142;-0.974;2024-03-22T02:40:49;212.50;;;197.80;;
51438;SDS011;38816;51.142;-0.974;2024-03-22T02:43:17;193.02;;;179.48;;
51438;SDS011;38816;51.142;-0.974;2024-03-22T02:45:44;194.45;;;180.90;;
51438;SDS011;38816;51.142;-0.974;2024-03-22T02:48:09;207.85;;;193.52;;
51438;SDS011;38816;51.142;-0.974;2024-03-22T02:50:38;194.57;;;181.07;;
51438;SDS011;38816;51.142;-0.974;2024-03-22T02:53:03;194.98;;;181.35;;
51438;SDS011;38816;51.142;-0.974;2024-03-22T02:55:30;188.18;;;175.00;;
51438;SDS011;38816;51.142;-0.974;2024-03-22T02:57:56;190.05;;;176.20;;
51438;SDS011;38816;51.142;-0.974;2024-03-22T03:00:22;189.63;;;176.27;;
51438;SDS011;38816;51.142;-0.974;2024-03-22T03:02:48;190.18;;;176.77;;
51438;SDS011;38816;51.142;-0.974;2024-03-22T03:05:16;192.73;;;179.00;;
51438;SDS011;38816;51.142;-0.974;2024-03-22T03:07:42;188.57;;;175.43;;
51438;SDS011;38816;51.142;-0.974;2024-03-22T03:10:07;202.35;;;187.90;;
51438;SDS011;38816;51.142;-0.974;2024-03-22T03:12:33;202.60;;;188.30;;
51438;SDS011;38816;51.142;-0.974;2024-03-22T03:14:58;180.98;;;168.50;;
51438;SDS011;38816;51.142;-0.974;2024-03-22T03:17:24;196.82;;;183.07;;
51438;SDS011;38816;51.142;-0.974;2024-03-22T03:19:52;182.43;;;169.68;;
51438;SDS011;38816;51.142;-0.974;2024-03-22T03:22:18;183.63;;;170.55;;
51438;SDS011;38816;51.142;-0.974;2024-03-22T03:24:43;176.20;;;163.75;;
51438;SDS011;38816;51.142;-0.974;2024-03-22T03:27:09;184.23;;;171.32;;
51438;SDS011;38816;51.142;-0.974;2024-03-22T03:29:34;178.90;;;166.25;;
51438;SDS011;38816;51.142;-0.974;2024-03-22T03:31:59;174.30;;;161.73;;
51438;SDS011;38816;51.142;-0.974;2024-03-22T03:34:25;163.52;;;151.88;;
51438;SDS011;38816;51.142;-0.974;2024-03-22T03:36:50;180.27;;;167.45;;
51438;SDS011;38816;51.142;-0.974;2024-03-22T03:39:16;165.13;;;153.40;;
51438;SDS011;38816;51.142;-0.974;2024-03-22T03:41:41;178.13;;;165.43;;
51438;SDS011;38816;51.142;-0.974;2024-03-22T03:44:07;169.80;;;157.85;;
51438;SDS011;38816;51.142;-0.974;2024-03-22T03:46:32;160.05;;;148.50;;
51438;SDS011;38816;51.142;-0.974;2024-03-22T03:48:58;173.63;;;161.13;;
51438;SDS011;38816;51.142;-0.974;2024-03-22T03:51:23;159.77;;;148.35;;
51438;SDS011;38816;51.142;-0.974;2024-03-22T03:53:49;158.02;;;146.50;;
51438;SDS011;38816;51.142;-0.974;2024-03-22T03:56:14;162.10;;;150.35;;
51438;SDS011;38816;51.142;-0.974;2024-03-22T03:58:39;149.75;;;138.85;;
51438;SDS011;38816;51.142;-0.974;2024-03-22T04:01:05;150.32;;;139.45;;
51438;SDS011;38816;51.142;-0.974;2024-03-22T04:03:31;152.55;;;141.60;;
51438;SDS011;38816;51.142;-0.974;2024-03-22T04:05:57;151.00;;;139.48;;
51438;SDS011;38816;51.142;-0.974;2024-03-22T04:08:24;160.15;;;149.10;;
51438;SDS011;38816;51.142;-0.974;2024-03-22T04:10:54;147.38;;;136.73;;
51438;SDS011;38816;51.142;-0.974;2024-03-22T04:13:25;149.40;;;138.60;;
51438;SDS011;38816;51.142;-0.974;2024-03-22T04:15:52;143.20;;;132.60;;
51438;SDS011;38816;51.142;-0.974;2024-03-22T04:18:19;142.95;;;132.77;;
51438;SDS011;38816;51.142;-0.974;2024-03-22T04:20:58;143.57;;;133.32;;
51438;SDS011;38816;51.142;-0.974;2024-03-22T04:23:24;155.77;;;144.45;;
51438;SDS011;38816;51.142;-0.974;2024-03-22T04:25:59;151.82;;;141.02;;
51438;SDS011;38816;51.142;-0.974;2024-03-22T04:28:26;151.20;;;140.40;;
51438;SDS011;38816;51.142;-0.974;2024-03-22T04:30:59;150.02;;;139.25;;
51438;SDS011;38816;51.142;-0.974;2024-03-22T04:33:29;158.77;;;147.52;;
51438;SDS011;38816;51.142;-0.974;2024-03-22T04:35:56;147.95;;;137.18;;
51438;SDS011;38816;51.142;-0.974;2024-03-22T04:38:25;156.48;;;145.02;;
51438;SDS011;38816;51.142;-0.974;2024-03-22T04:40:51;161.40;;;149.77;;
51438;SDS011;38816;51.142;-0.974;2024-03-22T04:43:17;159.57;;;148.40;;
51438;SDS011;38816;51.142;-0.974;2024-03-22T04:45:43;152.38;;;141.75;;
51438;SDS011;38816;51.142;-0.974;2024-03-22T04:48:12;157.52;;;146.65;;
51438;SDS011;38816;51.142;-0.974;2024-03-22T04:50:38;146.23;;;135.45;;
51438;SDS011;38816;51.142;-0.974;2024-03-22T04:53:04;153.95;;;143.18;;
51438;SDS011;38816;51.142;-0.974;2024-03-22T04:55:30;153.10;;;142.48;;
51438;SDS011;38816;51.142;-0.974;2024-03-22T04:57:57;147.32;;;137.05;;
51438;SDS011;38816;51.142;-0.974;2024-03-22T05:00:23;140.32;;;129.98;;
51438;SDS011;38816;51.142;-0.974;2024-03-22T05:02:50;145.43;;;134.75;;
51438;SDS011;38816;51.142;-0.974;2024-03-22T05:05:18;142.95;;;132.95;;
51438;SDS011;38816;51.142;-0.974;2024-03-22T05:07:44;141.27;;;131.35;;
51438;SDS011;38816;51.142;-0.974;2024-03-22T05:10:09;150.45;;;140.00;;
51438;SDS011;38816;51.142;-0.974;2024-03-22T05:12:35;144.40;;;133.90;;
51438;SDS011;38816;51.142;-0.974;2024-03-22T05:15:02;138.60;;;128.75;;
51438;SDS011;38816;51.142;-0.974;2024-03-22T05:17:28;129.93;;;120.88;;
51438;SDS011;38816;51.142;-0.974;2024-03-22T05:19:56;141.05;;;131.20;;
51438;SDS011;38816;51.142;-0.974;2024-03-22T05:22:22;135.52;;;126.18;;
51438;SDS011;38816;51.142;-0.974;2024-03-22T05:24:47;135.63;;;125.82;;
51438;SDS011;38816;51.142;-0.974;2024-03-22T05:27:13;128.90;;;119.70;;
51438;SDS011;38816;51.142;-0.974;2024-03-22T05:29:38;140.27;;;130.07;;
51438;SDS011;38816;51.142;-0.974;2024-03-22T05:32:04;145.63;;;135.40;;
51438;SDS011;38816;51.142;-0.974;2024-03-22T05:34:30;144.07;;;134.25;;
51438;SDS011;38816;51.142;-0.974;2024-03-22T05:36:56;144.80;;;134.73;;
51438;SDS011;38816;51.142;-0.974;2024-03-22T05:39:21;144.45;;;134.38;;
51438;SDS011;38816;51.142;-0.974;2024-03-22T05:41:47;139.30;;;129.65;;
51438;SDS011;38816;51.142;-0.974;2024-03-22T05:44:13;146.82;;;136.43;;
51438;SDS011;38816;51.142;-0.974;2024-03-22T05:46:38;143.38;;;133.35;;
51438;SDS011;38816;51.142;-0.974;2024-03-22T05:49:03;145.13;;;134.70;;
51438;SDS011;38816;51.142;-0.974;2024-03-22T05:51:29;144.40;;;134.02;;
51438;SDS011;38816;51.142;-0.974;2024-03-22T05:53:56;144.52;;;134.45;;
51438;SDS011;38816;51.142;-0.974;2024-03-22T05:56:22;146.32;;;136.32;;
51438;SDS011;38816;51.142;-0.974;2024-03-22T05:58:47;143.05;;;133.07;;
51438;SDS011;38816;51.142;-0.974;2024-03-22T06:01:16;137.00;;;127.30;;
51438;SDS011;38816;51.142;-0.974;2024-03-22T06:03:41;142.43;;;132.43;;
51438;SDS011;38816;51.142;-0.974;2024-03-22T06:06:07;142.48;;;132.85;;
51438;SDS011;38816;51.142;-0.974;2024-03-22T06:08:37;141.50;;;131.70;;
51438;SDS011;38816;51.142;-0.974;2024-03-22T06:11:05;148.20;;;137.75;;
51438;SDS011;38816;51.142;-0.974;2024-03-22T06:13:32;146.27;;;136.10;;
51438;SDS011;38816;51.142;-0.974;2024-03-22T06:16:01;139.00;;;128.95;;
51438;SDS011;38816;51.142;-0.974;2024-03-22T06:18:27;142.27;;;132.55;;
51438;SDS011;38816;51.142;-0.974;2024-03-22T06:20:52;146.48;;;136.57;;
51438;SDS011;38816;51.142;-0.974;2024-03-22T06:23:19;147.80;;;137.63;;
51438;SDS011;38816;51.142;-0.974;2024-03-22T06:25:52;153.38;;;142.32;;
51438;SDS011;38816;51.142;-0.974;2024-03-22T06:28:21;149.60;;;138.45;;
51438;SDS011;38816;51.142;-0.974;2024-03-22T06:30:47;153.65;;;142.82;;
51438;SDS011;38816;51.142;-0.974;2024-03-22T06:33:12;143.95;;;133.93;;
51438;SDS011;38816;51.142;-0.974;2024-03-22T06:35:44;149.52;;;139.02;;
51438;SDS011;38816;51.142;-0.974;2024-03-22T06:38:10;149.50;;;138.63;;
51438;SDS011;38816;51.142;-0.974;2024-03-22T06:40:35;164.07;;;152.38;;
51438;SDS011;38816;51.142;-0.974;2024-03-22T06:43:01;149.38;;;138.82;;
51438;SDS011;38816;51.142;-0.974;2024-03-22T06:45:27;148.15;;;137.65;;
51438;SDS011;38816;51.142;-0.974;2024-03-22T06:47:52;160.57;;;149.40;;
51438;SDS011;38816;51.142;-0.974;2024-03-22T06:50:18;146.40;;;136.02;;
51438;SDS011;38816;51.142;-0.974;2024-03-22T06:52:48;147.00;;;136.85;;
51438;SDS011;38816;51.142;-0.974;2024-03-22T06:55:13;140.77;;;131.23;;
51438;SDS011;38816;51.142;-0.974;2024-03-22T06:57:39;166.35;;;155.05;;
51438;SDS011;38816;51.142;-0.974;2024-03-22T07:00:04;151.55;;;140.60;;
51438;SDS011;38816;51.142;-0.974;2024-03-22T07:02:30;155.43;;;144.93;;
51438;SDS011;38816;51.142;-0.974;2024-03-22T07:04:56;146.70;;;136.50;;
51438;SDS011;38816;51.142;-0.974;2024-03-22T07:07:21;146.88;;;136.90;;
51438;SDS011;38816;51.142;-0.974;2024-03-22T07:09:47;143.93;;;133.82;;
51438;SDS011;38816;51.142;-0.974;2024-03-22T07:12:12;138.15;;;128.60;;
51438;SDS011;38816;51.142;-0.974;2024-03-22T07:14:38;170.18;;;158.45;;
51438;SDS011;38816;51.142;-0.974;2024-03-22T07:17:03;140.93;;;130.65;;
51438;SDS011;38816;51.142;-0.974;2024-03-22T07:19:30;141.30;;;131.57;;
51438;SDS011;38816;51.142;-0.974;2024-03-22T07:21:56;148.57;;;137.90;;
51438;SDS011;38816;51.142;-0.974;2024-03-22T07:24:23;142.65;;;132.70;;
51438;SDS011;38816;51.142;-0.974;2024-03-22T07:26:49;137.93;;;128.35;;
51438;SDS011;38816;51.142;-0.974;2024-03-22T07:29:15;136.98;;;126.78;;
51438;SDS011;38816;51.142;-0.974;2024-03-22T07:31:40;133.98;;;124.35;;
51438;SDS011;38816;51.142;-0.974;2024-03-22T07:34:07;123.18;;;114.25;;
51438;SDS011;38816;51.142;-0.974;2024-03-22T07:36:36;116.53;;;107.53;;
51438;SDS011;38816;51.142;-0.974;2024-03-22T07:39:02;120.88;;;111.90;;
51438;SDS011;38816;51.142;-0.974;2024-03-22T07:41:31;136.50;;;126.63;;
51438;SDS011;38816;51.142;-0.974;2024-03-22T07:44:00;129.73;;;119.80;;
51438;SDS011;38816;51.142;-0.974;2024-03-22T07:46:26;128.25;;;118.82;;
51438;SDS011;38816;51.142;-0.974;2024-03-22T07:48:52;116.22;;;107.75;;
51438;SDS011;38816;51.142;-0.974;2024-03-22T07:51:18;126.72;;;117.18;;
51438;SDS011;38816;51.142;-0.974;2024-03-22T07:53:44;116.28;;;107.82;;
51438;SDS011;38816;51.142;-0.974;2024-03-22T07:56:10;120.55;;;111.70;;
51438;SDS011;38816;51.142;-0.974;2024-03-22T07:58:36;118.93;;;110.75;;
51438;SDS011;38816;51.142;-0.974;2024-03-22T08:01:02;123.82;;;114.97;;
51438;SDS011;38816;51.142;-0.974;2024-03-22T08:03:27;109.78;;;102.00;;
51438;SDS011;38816;51.142;-0.974;2024-03-22T08:05:53;114.03;;;105.35;;
51438;SDS011;38816;51.142;-0.974;2024-03-22T08:08:18;136.70;;;126.78;;
51438;SDS011;38816;51.142;-0.974;2024-03-22T08:10:44;121.55;;;112.38;;
51438;SDS011;38816;51.142;-0.974;2024-03-22T08:13:09;151.32;;;139.85;;
51438;SDS011;38816;51.142;-0.974;2024-03-22T08:15:36;112.88;;;104.40;;
51438;SDS011;38816;51.142;-0.974;2024-03-22T08:18:01;113.68;;;105.28;;
51438;SDS011;38816;51.142;-0.974;2024-03-22T08:20:27;113.38;;;105.07;;
51438;SDS011;38816;51.142;-0.974;2024-03-22T08:22:53;119.63;;;110.82;;
51438;SDS011;38816;51.142;-0.974;2024-03-22T08:25:19;100.43;;;93.07;;
51438;SDS011;38816;51.142;-0.974;2024-03-22T08:27:45;115.28;;;107.13;;
51438;SDS011;38816;51.142;-0.974;2024-03-22T08:30:12;104.50;;;96.25;;
51438;SDS011;38816;51.142;-0.974;2024-03-22T08:32:38;118.60;;;110.07;;
51438;SDS011;38816;51.142;-0.974;2024-03-22T08:35:04;108.18;;;99.75;;
51438;SDS011;38816;51.142;-0.974;2024-03-22T08:37:30;107.60;;;99.90;;
51438;SDS011;38816;51.142;-0.974;2024-03-22T08:39:57;112.60;;;104.68;;
51438;SDS011;38816;51.142;-0.974;2024-03-22T08:42:22;96.70;;;89.63;;
51438;SDS011;38816;51.142;-0.974;2024-03-22T08:44:48;92.85;;;85.32;;
51438;SDS011;38816;51.142;-0.974;2024-03-22T08:47:14;99.47;;;92.15;;
51438;SDS011;38816;51.142;-0.974;2024-03-22T08:49:39;89.78;;;83.07;;
51438;SDS011;38816;51.142;-0.974;2024-03-22T08:52:06;89.90;;;83.13;;
51438;SDS011;38816;51.142;-0.974;2024-03-22T08:54:35;86.78;;;80.28;;
51438;SDS011;38816;51.142;-0.974;2024-03-22T08:57:01;85.70;;;79.22;;
51438;SDS011;38816;51.142;-0.974;2024-03-22T08:59:26;87.03;;;80.78;;
51438;SDS011;38816;51.142;-0.974;2024-03-22T09:01:52;100.00;;;92.68;;
51438;SDS011;38816;51.142;-0.974;2024-03-22T09:04:17;92.50;;;85.72;;
51438;SDS011;38816;51.142;-0.974;2024-03-22T09:06:44;89.60;;;82.97;;
51438;SDS011;38816;51.142;-0.974;2024-03-22T09:09:10;91.45;;;84.82;;
51438;SDS011;38816;51.142;-0.974;2024-03-22T09:11:36;99.07;;;91.75;;
51438;SDS011;38816;51.142;-0.974;2024-03-22T09:14:01;103.18;;;95.03;;
51438;SDS011;38816;51.142;-0.974;2024-03-22T09:16:27;98.47;;;91.40;;
51438;SDS011;38816;51.142;-0.974;2024-03-22T09:18:52;107.18;;;98.80;;
51438;SDS011;38816;51.142;-0.974;2024-03-22T09:21:18;107.53;;;99.80;;
51438;SDS011;38816;51.142;-0.974;2024-03-22T09:23:43;121.53;;;112.93;;
51438;SDS011;38816;51.142;-0.974;2024-03-22T09:26:09;108.40;;;100.72;;
51438;SDS011;38816;51.142;-0.974;2024-03-22T09:28:34;95.50;;;89.00;;
51438;SDS011;38816;51.142;-0.974;2024-03-22T09:31:03;97.13;;;90.15;;
51438;SDS011;38816;51.142;-0.974;2024-03-22T09:33:30;100.70;;;93.28;;
51438;SDS011;38816;51.142;-0.974;2024-03-22T09:35:59;106.32;;;98.80;;
51438;SDS011;38816;51.142;-0.974;2024-03-22T09:38:24;99.93;;;93.07;;
51438;SDS011;38816;51.142;-0.974;2024-03-22T09:40:50;114.05;;;106.22;;
51438;SDS011;38816;51.142;-0.974;2024-03-22T09:43:20;102.25;;;95.28;;
51438;SDS011;38816;51.142;-0.974;2024-03-22T09:45:49;104.78;;;97.30;;
51438;SDS011;38816;51.142;-0.974;2024-03-22T09:48:16;121.63;;;112.80;;
51438;SDS011;38816;51.142;-0.974;2024-03-22T09:50:43;99.95;;;92.38;;
51438;SDS011;38816;51.142;-0.974;2024-03-22T09:53:10;112.47;;;103.93;;
51438;SDS011;38816;51.142;-0.974;2024-03-22T09:55:37;107.43;;;99.70;;
51438;SDS011;38816;51.142;-0.974;2024-03-22T09:58:04;103.13;;;95.88;;
51438;SDS011;38816;51.142;-0.974;2024-03-22T10:00:30;121.75;;;113.32;;
51438;SDS011;38816;51.142;-0.974;2024-03-22T10:02:56;101.68;;;93.75;;
51438;SDS011;38816;51.142;-0.974;2024-03-22T10:05:25;99.03;;;91.75;;
51438;SDS011;38816;51.142;-0.974;2024-03-22T10:07:51;102.75;;;95.60;;
51438;SDS011;38816;51.142;-0.974;2024-03-22T10:10:19;135.20;;;125.93;;
51438;SDS011;38816;51.142;-0.974;2024-03-22T10:12:48;108.50;;;100.93;;
51438;SDS011;38816;51.142;-0.974;2024-03-22T10:15:14;94.68;;;88.20;;
51438;SDS011;38816;51.142;-0.974;2024-03-22T10:17:41;101.88;;;94.75;;
51438;SDS011;38816;51.142;-0.974;2024-03-22T10:20:12;106.70;;;99.28;;
51438;SDS011;38816;51.142;-0.974;2024-03-22T10:25:34;106.57;;;99.28;;
51438;SDS011;38816;51.142;-0.974;2024-03-22T10:28:00;100.03;;;93.20;;
51438;SDS011;38816;51.142;-0.974;2024-03-22T10:30:25;101.90;;;94.93;;
51438;SDS011;38816;51.142;-0.974;2024-03-22T10:32:52;93.80;;;87.32;;
51438;SDS011;38816;51.142;-0.974;2024-03-22T10:35:20;100.75;;;93.35;;
51438;SDS011;38816;51.142;-0.974;2024-03-22T10:37:48;102.07;;;94.95;;
51438;SDS011;38816;51.142;-0.974;2024-03-22T10:40:15;117.03;;;108.78;;
51438;SDS011;38816;51.142;-0.974;2024-03-22T10:42:41;104.45;;;97.45;;
51438;SDS011;38816;51.142;-0.974;2024-03-22T10:45:09;115.82;;;108.10;;
51438;SDS011;38816;51.142;-0.974;2024-03-22T10:47:36;185.40;;;170.63;;
51438;SDS011;38816;51.142;-0.974;2024-03-22T10:50:06;130.40;;;121.32;;
51438;SDS011;38816;51.142;-0.974;2024-03-22T10:52:38;110.38;;;102.43;;
51438;SDS011;38816;51.142;-0.974;2024-03-22T10:55:10;118.93;;;110.47;;
51438;SDS011;38816;51.142;-0.974;2024-03-22T10:57:39;114.53;;;106.15;;
51438;SDS011;38816;51.142;-0.974;2024-03-22T11:00:08;139.15;;;129.45;;
51438;SDS011;38816;51.142;-0.974;2024-03-22T11:02:37;140.30;;;130.40;;
51438;SDS011;38816;51.142;-0.974;2024-03-22T11:05:05;142.48;;;132.10;;
51438;SDS011;38816;51.142;-0.974;2024-03-22T11:07:32;149.98;;;139.50;;
51438;SDS011;38816;51.142;-0.974;2024-03-22T11:10:00;147.13;;;136.50;;
51438;SDS011;38816;51.142;-0.974;2024-03-22T11:12:31;136.02;;;126.13;;
51438;SDS011;38816;51.142;-0.974;2024-03-22T11:14:58;133.77;;;124.32;;
51438;SDS011;38816;51.142;-0.974;2024-03-22T11:17:24;132.13;;;122.72;;
51438;SDS011;38816;51.142;-0.974;2024-03-22T11:19:50;138.68;;;128.57;;
51438;SDS011;38816;51.142;-0.974;2024-03-22T11:22:17;134.98;;;125.03;;
51438;SDS011;38816;51.142;-0.974;2024-03-22T11:24:43;133.88;;;124.45;;
51438;SDS011;38816;51.142;-0.974;2024-03-22T11:27:09;127.45;;;118.18;;
51438;SDS011;38816;51.142;-0.974;2024-03-22T11:29:36;133.00;;;123.15;;
51438;SDS011;38816;51.142;-0.974;2024-03-22T11:32:04;130.75;;;120.30;;
51438;SDS011;38816;51.142;-0.974;2024-03-22T11:34:30;133.50;;;123.20;;
51438;SDS011;38816;51.142;-0.974;2024-03-22T11:36:55;135.77;;;125.95;;
51438;SDS011;38816;51.142;-0.974;2024-03-22T11:39:21;162.25;;;150.20;;
51438;SDS011;38816;51.142;-0.974;2024-03-22T11:41:47;155.63;;;144.23;;
51438;SDS011;38816;51.142;-0.974;2024-03-22T11:44:14;163.98;;;151.73;;
51438;SDS011;38816;51.142;-0.974;2024-03-22T11:46:43;166.52;;;154.18;;
51438;SDS011;38816;51.142;-0.974;2024-03-22T11:49:09;170.70;;;158.10;;
51438;SDS011;38816;51.142;-0.974;2024-03-22T11:51:35;207.73;;;192.20;;
51438;SDS011;38816;51.142;-0.974;2024-03-22T11:54:02;195.73;;;181.02;;
51438;SDS011;38816;51.142;-0.974;2024-03-22T11:56:31;153.63;;;142.25;;
51438;SDS011;38816;51.142;-0.974;2024-03-22T11:59:02;165.50;;;153.38;;
51438;SDS011;38816;51.142;-0.974;2024-03-22T12:01:28;158.15;;;145.93;;
51438;SDS011;38816;51.142;-0.974;2024-03-22T12:03:55;169.95;;;157.50;;
51438;SDS011;38816;51.142;-0.974;2024-03-22T12:06:20;157.13;;;145.02;;
51438;SDS011;38816;51.142;-0.974;2024-03-22T12:08:47;186.02;;;172.80;;
51438;SDS011;38816;51.142;-0.974;2024-03-22T12:11:12;179.02;;;165.77;;
51438;SDS011;38816;51.142;-0.974;2024-03-22T12:13:38;157.88;;;145.52;;
51438;SDS011;38816;51.142;-0.974;2024-03-22T12:16:04;147.13;;;135.60;;
51438;SDS011;38816;51.142;-0.974;2024-03-22T12:18:30;175.80;;;162.65;;
51438;SDS011;38816;51.142;-0.974;2024-03-22T12:20:55;172.90;;;159.55;;
51438;SDS011;38816;51.142;-0.974;2024-03-22T12:23:21;194.60;;;179.68;;
51438;SDS011;38816;51.142;-0.974;2024-03-22T12:25:46;180.43;;;167.23;;
51438;SDS011;38816;51.142;-0.974;2024-03-22T12:28:12;189.60;;;175.55;;
51438;SDS011;38816;51.142;-0.974;2024-03-22T12:30:38;200.15;;;185.25;;
51438;SDS011;38816;51.142;-0.974;2024-03-22T12:33:03;184.20;;;170.68;;
51438;SDS011;38816;51.142;-0.974;2024-03-22T12:35:30;190.73;;;176.43;;
51438;SDS011;38816;51.142;-0.974;2024-03-22T12:37:57;201.23;;;185.90;;
51438;SDS011;38816;51.142;-0.974;2024-03-22T12:40:23;180.40;;;167.23;;
51438;SDS011;38816;51.142;-0.974;2024-03-22T12:42:48;168.05;;;155.18;;
51438;SDS011;38816;51.142;-0.974;2024-03-22T12:45:15;194.25;;;179.35;;
51438;SDS011;38816;51.142;-0.974;2024-03-22T12:47:43;173.48;;;160.75;;
51438;SDS011;38816;51.142;-0.974;2024-03-22T12:50:09;173.52;;;160.23;;
51438;SDS011;38816;51.142;-0.974;2024-03-22T12:52:38;179.15;;;165.85;;
51438;SDS011;38816;51.142;-0.974;2024-03-22T12:55:04;156.05;;;144.35;;
51438;SDS011;38816;51.142;-0.974;2024-03-22T12:57:32;156.52;;;144.05;;
51438;SDS011;38816;51.142;-0.974;2024-03-22T12:59:57;158.88;;;146.77;;
51438;SDS011;38816;51.142;-0.974;2024-03-22T13:02:23;142.65;;;131.93;;
51438;SDS011;38816;51.142;-0.974;2024-03-22T13:04:51;165.05;;;152.88;;
51438;SDS011;38816;51.142;-0.974;2024-03-22T13:07:18;164.05;;;151.45;;
51438;SDS011;38816;51.142;-0.974;2024-03-22T13:09:47;149.20;;;138.27;;
51438;SDS011;38816;51.142;-0.974;2024-03-22T13:12:13;141.82;;;130.38;;
51438;SDS011;38816;51.142;-0.974;2024-03-22T13:14:38;153.85;;;142.05;;
51438;SDS011;38816;51.142;-0.974;2024-03-22T13:17:07;185.50;;;172.27;;
51438;SDS011;38816;51.142;-0.974;2024-03-22T13:19:33;161.02;;;148.60;;
51438;SDS011;38816;51.142;-0.974;2024-03-22T13:21:59;159.68;;;147.45;;
51438;SDS011;38816;51.142;-0.974;2024-03-22T13:24:24;151.00;;;139.93;;
51438;SDS011;38816;51.142;-0.974;2024-03-22T13:26:52;161.98;;;149.68;;
51438;SDS011;38816;51.142;-0.974;2024-03-22T13:29:18;167.80;;;154.88;;
51438;SDS011;38816;51.142;-0.974;2024-03-22T13:31:43;177.73;;;164.52;;
51438;SDS011;38816;51.142;-0.974;2024-03-22T13:34:09;207.15;;;191.70;;
51438;SDS011;38816;51.142;-0.974;2024-03-22T13:36:34;189.07;;;174.63;;
51438;SDS011;38816;51.142;-0.974;2024-03-22T13:39:02;180.02;;;166.57;;
51438;SDS011;38816;51.142;-0.974;2024-03-22T13:41:28;188.18;;;174.45;;
51438;SDS011;38816;51.142;-0.974;2024-03-22T13:43:54;212.25;;;196.35;;